createdAt,value
2022-08-29T00:01:21.871Z,39.00
2022-08-29T00:03:50.717Z,39.00
2022-08-29T00:06:19.835Z,38.90
2022-08-29T00:08:47.543Z,39.00
2022-08-29T00:11:15.267Z,39.10
2022-08-29T00:13:43.078Z,39.10
2022-08-29T00:16:11.018Z,39.10
2022-08-29T00:18:39.048Z,39.00
2022-08-29T00:21:07.333Z,39.00
2022-08-29T00:23:36.644Z,39.10
2022-08-29T00:26:04.580Z,39.00
2022-08-29T00:28:32.318Z,39.00
2022-08-29T00:31:00.018Z,39.10
2022-08-29T00:33:27.733Z,39.10
2022-08-29T00:35:55.445Z,39.10
2022-08-29T00:38:27.624Z,39.10
2022-08-29T00:40:57.676Z,39.20
2022-08-29T00:43:26.406Z,39.10
2022-08-29T00:45:58.339Z,39.20
2022-08-29T00:48:27.143Z,39.20
2022-08-29T00:50:56.090Z,39.20
2022-08-29T00:53:25.351Z,39.20
2022-08-29T00:55:55.201Z,39.10
2022-08-29T00:58:27.646Z,39.20
2022-08-29T01:00:55.562Z,39.20
2022-08-29T01:03:23.314Z,39.20
2022-08-29T01:05:51.355Z,39.30
2022-08-29T01:08:19.084Z,39.30
2022-08-29T01:11:04.555Z,39.30
2022-08-29T01:13:37.678Z,39.20
2022-08-29T01:16:05.769Z,39.40
2022-08-29T01:18:34.108Z,39.40
2022-08-29T01:21:05.924Z,39.30
2022-08-29T01:23:35.074Z,39.40
2022-08-29T01:26:04.123Z,39.40
2022-08-29T01:28:33.076Z,39.40
2022-08-29T01:31:02.569Z,39.40
2022-08-29T01:33:39.064Z,39.40
2022-08-29T01:36:07.328Z,39.40
2022-08-29T01:38:35.161Z,39.40
2022-08-29T01:41:04.698Z,39.60
2022-08-29T01:43:32.724Z,39.50
2022-08-29T01:46:00.481Z,39.40
2022-08-29T01:48:28.281Z,39.40
2022-08-29T01:50:56.175Z,39.40
2022-08-29T01:53:24.303Z,39.40
2022-08-29T01:55:52.159Z,39.60
2022-08-29T01:58:21.419Z,39.50
2022-08-29T02:00:49.628Z,39.50
2022-08-29T02:03:18.644Z,40.20
2022-08-29T02:05:48.514Z,39.60
2022-08-29T02:08:16.548Z,39.60
2022-08-29T02:10:45.218Z,39.60
2022-08-29T02:13:13.707Z,39.70
2022-08-29T02:15:43.055Z,39.70
2022-08-29T02:18:11.075Z,39.70
2022-08-29T02:20:39.044Z,39.70
2022-08-29T02:23:21.845Z,40.30
2022-08-29T02:25:55.005Z,39.60
2022-08-29T02:28:23.015Z,39.70
2022-08-29T02:30:56.831Z,39.60
2022-08-29T02:33:24.941Z,39.70
2022-08-29T02:35:53.353Z,39.70
2022-08-29T02:38:21.440Z,39.60
2022-08-29T02:40:49.763Z,39.70
2022-08-29T02:43:19.444Z,39.80
2022-08-29T02:45:47.321Z,40.30
2022-08-29T02:48:16.652Z,39.70
2022-08-29T02:50:45.231Z,39.70
2022-08-29T02:53:13.314Z,39.70
2022-08-29T02:55:41.405Z,39.70
2022-08-29T02:58:09.345Z,39.80
2022-08-29T03:00:37.386Z,39.80
2022-08-29T03:03:05.801Z,39.80
2022-08-29T03:05:37.096Z,39.80
2022-08-29T03:08:06.522Z,39.80
2022-08-29T03:10:34.499Z,39.90
2022-08-29T03:13:02.413Z,40.00
2022-08-29T03:15:30.434Z,40.00
2022-08-29T03:17:58.774Z,40.00
2022-08-29T03:20:26.845Z,39.90
2022-08-29T03:22:56.316Z,39.90
2022-08-29T03:25:24.243Z,39.90
2022-08-29T03:27:52.835Z,39.90
2022-08-29T03:30:20.899Z,39.90
2022-08-29T03:32:51.820Z,40.00
2022-08-29T03:35:19.990Z,40.00
2022-08-29T03:37:47.949Z,40.20
2022-08-29T03:40:18.090Z,40.10
2022-08-29T03:42:46.072Z,40.10
2022-08-29T03:45:15.419Z,40.20
2022-08-29T03:47:43.375Z,40.20
2022-08-29T03:50:11.765Z,40.20
2022-08-29T03:52:43.204Z,40.20
2022-08-29T03:55:11.520Z,40.20
2022-08-29T03:57:40.792Z,40.20
2022-08-29T04:00:12.127Z,40.20
2022-08-29T04:02:40.164Z,40.20
2022-08-29T04:05:08.747Z,41.00
2022-08-29T04:07:49.718Z,40.20
2022-08-29T04:10:20.894Z,40.20
2022-08-29T04:12:54.253Z,40.30
2022-08-29T04:15:22.889Z,40.30
2022-08-29T04:17:53.392Z,40.20
2022-08-29T04:20:24.782Z,40.40
2022-08-29T04:22:54.238Z,40.50
2022-08-29T04:25:22.632Z,40.40
2022-08-29T04:27:51.946Z,40.40
2022-08-29T04:30:21.037Z,40.30
2022-08-29T04:32:48.901Z,40.40
2022-08-29T04:35:17.124Z,40.40
2022-08-29T04:37:45.036Z,40.40
2022-08-29T04:40:15.502Z,40.50
2022-08-29T04:42:43.653Z,40.50
2022-08-29T04:45:14.831Z,40.60
2022-08-29T04:47:43.158Z,40.60
2022-08-29T04:50:14.417Z,40.60
2022-08-29T04:52:42.615Z,40.80
2022-08-29T04:55:11.395Z,40.80
2022-08-29T04:57:39.449Z,40.70
2022-08-29T05:00:10.408Z,40.80
2022-08-29T05:02:39.951Z,40.80
2022-08-29T05:05:08.392Z,40.90
2022-08-29T05:07:38.418Z,41.00
2022-08-29T05:10:09.264Z,41.00
2022-08-29T05:12:37.348Z,40.90
2022-08-29T05:15:05.461Z,40.90
2022-08-29T05:17:33.542Z,41.00
2022-08-29T05:20:04.772Z,41.00
2022-08-29T05:22:32.865Z,41.00
2022-08-29T05:25:00.647Z,41.00
2022-08-29T05:27:28.426Z,41.00
2022-08-29T05:29:56.451Z,41.00
2022-08-29T05:32:24.743Z,41.00
2022-08-29T05:34:52.698Z,41.10
2022-08-29T05:37:22.400Z,41.20
2022-08-29T05:39:50.327Z,41.10
2022-08-29T05:42:19.767Z,41.10
2022-08-29T05:44:47.741Z,41.10
2022-08-29T05:47:16.637Z,41.70
2022-08-29T05:49:44.968Z,41.10
2022-08-29T05:52:13.325Z,41.10
2022-08-29T05:54:42.923Z,41.20
2022-08-29T05:57:15.402Z,41.20
2022-08-29T05:59:46.214Z,41.20
2022-08-29T06:02:14.378Z,41.20
2022-08-29T06:04:42.588Z,41.10
2022-08-29T06:07:11.040Z,41.20
2022-08-29T06:09:39.589Z,41.20
2022-08-29T06:12:09.477Z,41.20
2022-08-29T06:14:37.546Z,41.20
2022-08-29T06:17:05.681Z,41.30
2022-08-29T06:19:36.250Z,41.30
2022-08-29T06:22:09.728Z,41.30
2022-08-29T06:24:38.591Z,41.30
2022-08-29T06:27:08.005Z,41.30
2022-08-29T06:29:43.190Z,41.30
2022-08-29T06:32:11.876Z,41.30
2022-08-29T06:34:40.012Z,41.20
2022-08-29T06:37:08.038Z,41.30
2022-08-29T06:39:36.116Z,41.30
2022-08-29T06:42:04.208Z,41.40
2022-08-29T06:44:33.454Z,41.40
2022-08-29T06:47:01.353Z,41.50
2022-08-29T06:49:29.736Z,41.60
2022-08-29T06:51:58.521Z,42.10
2022-08-29T06:54:28.045Z,41.50
2022-08-29T06:56:56.491Z,41.50
2022-08-29T06:59:24.410Z,41.40
2022-08-29T07:01:55.149Z,41.50
2022-08-29T07:04:26.638Z,41.50
2022-08-29T07:06:54.896Z,41.50
2022-08-29T07:09:22.890Z,41.50
2022-08-29T07:11:50.884Z,41.50
2022-08-29T07:14:18.804Z,41.60
2022-08-29T07:16:46.752Z,41.60
2022-08-29T07:19:16.099Z,41.60
2022-08-29T07:21:43.968Z,41.40
2022-08-29T07:24:11.951Z,41.50
2022-08-29T07:26:42.475Z,41.60
2022-08-29T07:29:11.537Z,41.60
2022-08-29T07:31:40.161Z,41.60
2022-08-29T07:34:08.142Z,41.60
2022-08-29T07:36:37.623Z,41.60
2022-08-29T07:39:06.865Z,41.60
2022-08-29T07:41:34.654Z,41.60
2022-08-29T07:44:02.422Z,42.10
2022-08-29T07:46:31.494Z,41.70
2022-08-29T07:48:59.416Z,41.70
2022-08-29T07:51:27.686Z,41.60
2022-08-29T07:53:57.861Z,41.60
2022-08-29T07:56:26.952Z,41.70
2022-08-29T07:58:55.248Z,41.60
2022-08-29T08:01:23.311Z,41.60
2022-08-29T08:03:51.296Z,41.50
2022-08-29T08:06:19.484Z,41.40
2022-08-29T08:08:47.675Z,41.40
2022-08-29T08:11:16.799Z,41.40
2022-08-29T08:13:44.572Z,41.40
2022-08-29T08:16:13.811Z,41.40
2022-08-29T08:18:42.275Z,41.40
2022-08-29T08:21:10.454Z,41.40
2022-08-29T08:23:38.337Z,41.40
2022-08-29T08:26:06.406Z,41.40
2022-08-29T08:28:35.647Z,41.40
2022-08-29T08:31:06.690Z,41.40
2022-08-29T08:33:35.408Z,41.40
2022-08-29T08:36:03.853Z,41.50
2022-08-29T08:38:31.959Z,41.60
2022-08-29T08:41:03.543Z,41.60
2022-08-29T08:43:40.508Z,41.60
2022-08-29T08:46:08.420Z,41.60
2022-08-29T08:48:38.114Z,41.70
2022-08-29T08:51:07.324Z,41.60
2022-08-29T08:53:36.900Z,41.70
2022-08-29T08:56:08.573Z,41.70
2022-08-29T08:58:42.342Z,41.70
2022-08-29T09:01:15.315Z,41.90
2022-08-29T09:04:04.348Z,41.80
2022-08-29T09:06:40.744Z,42.10
2022-08-29T09:09:15.924Z,42.80
2022-08-29T09:11:48.922Z,43.30
2022-08-29T09:14:37.623Z,43.20
2022-08-29T09:17:06.651Z,43.30
2022-08-29T09:19:34.367Z,43.30
2022-08-29T09:22:09.483Z,43.30
2022-08-29T09:24:39.671Z,43.20
2022-08-29T09:27:09.084Z,43.30
2022-08-29T09:29:38.607Z,43.30
2022-08-29T09:32:08.743Z,43.30
2022-08-29T09:35:04.468Z,43.30
2022-08-29T09:37:26.779Z,43.40
2022-08-29T09:39:59.067Z,43.50
2022-08-29T09:42:31.751Z,43.60
2022-08-29T09:45:09.392Z,43.60
2022-08-29T09:47:37.219Z,43.50
2022-08-29T09:50:10.135Z,43.50
2022-08-29T09:52:38.952Z,43.60
2022-08-29T09:55:29.335Z,43.40
2022-08-29T09:57:58.872Z,43.30
2022-08-29T10:00:29.784Z,43.30
2022-08-29T10:02:58.574Z,43.10
2022-08-29T10:05:41.473Z,42.90
2022-08-29T10:08:29.602Z,42.60
2022-08-29T10:11:02.739Z,42.30
2022-08-29T10:13:35.701Z,43.00
2022-08-29T10:16:12.532Z,42.40
2022-08-29T10:18:44.775Z,42.50
2022-08-29T10:21:20.320Z,42.60
2022-08-29T10:24:01.514Z,42.70
2022-08-29T10:26:34.118Z,42.90
2022-08-29T10:29:06.167Z,43.10
2022-08-29T10:31:38.934Z,43.10
2022-08-29T10:34:17.981Z,43.10
2022-08-29T10:36:47.983Z,43.00
2022-08-29T10:39:17.964Z,43.00
2022-08-29T10:41:52.615Z,43.00
2022-08-29T10:44:28.308Z,43.00
2022-08-29T10:47:06.808Z,43.00
2022-08-29T10:49:45.439Z,43.00
2022-08-29T10:52:15.655Z,42.80
2022-08-29T10:54:51.961Z,42.80
2022-08-29T10:57:23.205Z,43.10
2022-08-29T10:59:54.383Z,43.20
2022-08-29T11:02:28.283Z,43.40
2022-08-29T11:04:57.509Z,43.30
2022-08-29T11:07:29.132Z,43.30
2022-08-29T11:09:58.536Z,43.40
2022-08-29T11:12:31.253Z,43.40
2022-08-29T11:15:01.076Z,43.20
2022-08-29T11:17:32.473Z,43.20
2022-08-29T11:20:03.927Z,43.20
2022-08-29T11:22:34.691Z,43.30
2022-08-29T11:25:05.579Z,43.10
2022-08-29T11:27:37.229Z,43.10
2022-08-29T11:30:06.605Z,43.10
2022-08-29T11:32:39.844Z,43.10
2022-08-29T11:35:11.071Z,43.10
2022-08-29T11:38:20.496Z,42.90
2022-08-29T11:43:48.108Z,42.90
2022-08-29T11:46:16.200Z,42.70
2022-08-29T11:48:46.260Z,42.20
2022-08-29T11:51:36.110Z,42.10
2022-08-29T11:54:41.439Z,42.30
2022-08-29T11:57:46.933Z,42.40
2022-08-29T12:00:52.260Z,42.40
2022-08-29T12:03:45.787Z,42.00
2022-08-29T12:06:20.465Z,42.10
2022-08-29T12:08:49.668Z,41.90
2022-08-29T12:11:19.185Z,41.40
2022-08-29T12:14:04.745Z,41.00
2022-08-29T12:16:50.072Z,41.30
2022-08-29T12:19:54.308Z,41.50
2022-08-29T12:23:02.080Z,41.50
2022-08-29T12:25:41.331Z,41.20
2022-08-29T12:28:31.133Z,41.10
2022-08-29T12:31:07.488Z,40.60
2022-08-29T12:33:41.143Z,40.70
2022-08-29T12:36:19.221Z,40.40
2022-08-29T12:38:53.387Z,40.10
2022-08-29T12:41:32.600Z,40.00
2022-08-29T12:44:03.111Z,40.00
2022-08-29T12:46:34.476Z,40.50
2022-08-29T12:49:06.342Z,40.20
2022-08-29T12:51:40.137Z,40.00
2022-08-29T12:54:08.306Z,40.00
2022-08-29T12:56:36.279Z,39.80
2022-08-29T12:59:05.125Z,40.00
2022-08-29T13:01:34.425Z,40.10
2022-08-29T13:04:03.804Z,40.20
2022-08-29T13:06:32.122Z,40.40
2022-08-29T13:09:01.494Z,40.60
2022-08-29T13:11:31.138Z,40.90
2022-08-29T13:14:09.708Z,41.10
2022-08-29T13:16:37.854Z,41.00
2022-08-29T13:19:11.284Z,40.50
2022-08-29T13:21:39.505Z,40.40
2022-08-29T13:24:12.740Z,40.00
2022-08-29T13:26:43.363Z,40.40
2022-08-29T13:29:29.172Z,40.40
2022-08-29T13:32:10.768Z,40.70
2022-08-29T13:34:38.548Z,40.90
2022-08-29T13:37:16.365Z,40.90
2022-08-29T13:39:50.027Z,40.70
2022-08-29T13:42:26.280Z,40.50
2022-08-29T13:45:08.127Z,40.30
2022-08-29T13:47:41.348Z,40.20
2022-08-29T13:50:10.786Z,40.10
2022-08-29T13:52:38.658Z,40.00
2022-08-29T13:55:09.867Z,40.00
2022-08-29T13:57:38.793Z,40.00
2022-08-29T14:00:09.955Z,40.20
2022-08-29T14:02:44.740Z,40.40
2022-08-29T14:05:13.864Z,40.40
2022-08-29T14:07:42.388Z,40.40
2022-08-29T14:10:12.965Z,40.60
2022-08-29T14:12:41.101Z,40.60
2022-08-29T14:15:10.810Z,40.40
2022-08-29T14:17:39.785Z,40.40
2022-08-29T14:20:09.645Z,40.30
2022-08-29T14:22:37.669Z,40.40
2022-08-29T14:25:06.520Z,40.50
2022-08-29T14:27:35.652Z,40.50
2022-08-29T14:30:03.778Z,40.40
2022-08-29T14:32:31.774Z,40.40
2022-08-29T14:34:59.711Z,40.30
2022-08-29T14:37:27.659Z,40.40
2022-08-29T14:39:55.771Z,40.50
2022-08-29T14:42:26.201Z,40.40
2022-08-29T14:44:55.445Z,40.50
2022-08-29T14:47:23.395Z,40.70
2022-08-29T14:49:51.336Z,40.70
2022-08-29T14:52:19.181Z,40.80
2022-08-29T14:54:46.899Z,40.90
2022-08-29T14:57:14.599Z,41.00
2022-08-29T14:59:42.402Z,41.00
2022-08-29T15:02:11.819Z,41.20
2022-08-29T15:04:39.802Z,41.20
2022-08-29T15:07:07.907Z,41.30
2022-08-29T15:09:36.050Z,41.30
2022-08-29T15:12:04.445Z,41.40
2022-08-29T15:14:34.470Z,41.60
2022-08-29T15:17:02.534Z,41.60
2022-08-29T15:22:19.592Z,41.80
2022-08-29T15:24:47.952Z,41.90
2022-08-29T15:27:15.972Z,41.90
2022-08-29T15:29:43.891Z,41.90
2022-08-29T15:32:12.062Z,41.90
2022-08-29T15:34:41.467Z,41.90
2022-08-29T15:37:09.885Z,41.90
2022-08-29T15:39:37.702Z,41.90
2022-08-29T15:42:08.557Z,41.80
2022-08-29T15:44:36.468Z,41.80
2022-08-29T15:47:04.737Z,41.80
2022-08-29T15:49:38.327Z,41.80
2022-08-29T15:52:07.693Z,41.70
2022-08-29T15:54:36.089Z,41.60
2022-08-29T15:57:04.085Z,41.60
2022-08-29T15:59:56.400Z,41.40
2022-08-29T16:02:19.992Z,41.50
2022-08-29T16:04:48.437Z,41.40
2022-08-29T16:07:18.187Z,41.40
2022-08-29T16:09:46.160Z,41.50
2022-08-29T16:12:14.689Z,41.50
2022-08-29T16:14:59.749Z,41.60
2022-08-29T16:17:29.778Z,41.60
2022-08-29T16:19:58.126Z,41.90
2022-08-29T16:22:27.758Z,42.20
2022-08-29T16:24:55.727Z,42.30
2022-08-29T16:27:24.459Z,42.50
2022-08-29T16:29:52.527Z,42.60
2022-08-29T16:32:20.580Z,42.70
2022-08-29T16:34:48.588Z,42.80
2022-08-29T16:37:16.551Z,43.00
2022-08-29T16:39:45.925Z,43.20
2022-08-29T16:42:14.133Z,43.20
2022-08-29T16:44:42.037Z,43.30
2022-08-29T16:47:11.174Z,43.40
2022-08-29T16:49:39.107Z,43.30
2022-08-29T16:52:07.230Z,43.40
2022-08-29T16:54:35.103Z,43.40
2022-08-29T16:57:04.648Z,43.60
2022-08-29T16:59:37.081Z,43.70
2022-08-29T17:02:05.257Z,43.90
2022-08-29T17:04:33.725Z,43.90
2022-08-29T17:07:02.462Z,43.90
2022-08-29T17:09:29.182Z,44.00
2022-08-29T17:11:56.247Z,44.10
2022-08-29T17:14:24.788Z,44.20
2022-08-29T17:16:53.571Z,44.20
2022-08-29T17:19:21.669Z,44.20
2022-08-29T17:21:49.569Z,44.30
2022-08-29T17:24:17.538Z,44.30
2022-08-29T17:26:46.392Z,44.40
2022-08-29T17:29:14.376Z,44.60
2022-08-29T17:31:43.968Z,44.60
2022-08-29T17:34:12.885Z,44.60
2022-08-29T17:36:43.500Z,44.80
2022-08-29T17:39:11.767Z,44.70
2022-08-29T17:41:40.055Z,44.60
2022-08-29T17:44:08.805Z,44.30
2022-08-29T17:46:36.799Z,44.30
2022-08-29T17:49:10.253Z,44.20
2022-08-29T17:51:38.369Z,44.10
2022-08-29T17:54:08.504Z,44.00
2022-08-29T17:56:44.272Z,44.00
2022-08-29T17:59:12.891Z,43.90
2022-08-29T18:01:41.035Z,43.90
2022-08-29T18:04:10.893Z,44.00
2022-08-29T18:06:39.036Z,43.90
2022-08-29T18:09:07.216Z,43.90
2022-08-29T18:11:35.397Z,43.90
2022-08-29T18:14:03.546Z,43.90
2022-08-29T18:16:31.758Z,43.80
2022-08-29T18:18:59.855Z,43.80
2022-08-29T18:21:30.179Z,43.80
2022-08-29T18:23:58.209Z,43.70
2022-08-29T18:26:26.846Z,43.80
2022-08-29T18:28:55.055Z,43.70
2022-08-29T18:31:23.784Z,43.70
2022-08-29T18:34:06.946Z,43.80
2022-08-29T18:36:37.434Z,43.80
2022-08-29T18:39:05.880Z,43.80
2022-08-29T18:41:34.027Z,43.80
2022-08-29T18:44:02.061Z,43.80
2022-08-29T18:46:30.558Z,43.80
2022-08-29T18:48:58.650Z,43.90
2022-08-29T18:51:27.733Z,43.90
2022-08-29T18:53:57.553Z,43.90
2022-08-29T18:56:27.365Z,43.90
2022-08-29T18:58:58.816Z,44.00
2022-08-29T19:01:28.933Z,44.00
2022-08-29T19:03:57.754Z,43.90
2022-08-29T19:06:27.401Z,43.90
2022-08-29T19:08:57.313Z,43.90
2022-08-29T19:11:25.301Z,44.10
2022-08-29T19:13:54.009Z,44.10
2022-08-29T19:16:23.015Z,44.00
2022-08-29T19:22:31.881Z,44.20
2022-08-29T19:25:01.314Z,44.20
2022-08-29T19:27:43.214Z,44.20
2022-08-29T19:30:12.583Z,44.30
2022-08-29T19:32:40.477Z,44.40
2022-08-29T19:35:09.371Z,44.50
2022-08-29T19:37:37.354Z,44.50
2022-08-29T19:40:07.224Z,44.60
2022-08-29T19:42:34.985Z,44.60
2022-08-29T19:45:03.385Z,44.70
2022-08-29T19:47:31.411Z,44.70
2022-08-29T19:49:59.399Z,44.70
2022-08-29T19:52:27.353Z,44.80
2022-08-29T19:54:58.295Z,44.80
2022-08-29T19:57:29.347Z,44.80
2022-08-29T19:59:57.707Z,44.80
2022-08-29T20:02:27.048Z,44.80
2022-08-29T20:04:55.106Z,44.80
2022-08-29T20:07:23.113Z,44.90
2022-08-29T20:09:53.400Z,44.90
2022-08-29T20:12:21.600Z,44.90
2022-08-29T20:14:52.336Z,45.00
2022-08-29T20:17:20.395Z,45.00
2022-08-29T20:19:49.305Z,45.00
2022-08-29T20:22:17.190Z,45.00
2022-08-29T20:24:48.398Z,45.10
2022-08-29T20:27:16.165Z,45.20
2022-08-29T20:29:43.869Z,45.20
2022-08-29T20:32:12.950Z,45.20
2022-08-29T20:34:40.768Z,45.20
2022-08-29T20:37:10.403Z,45.20
2022-08-29T20:39:38.222Z,45.30
2022-08-29T20:42:07.196Z,45.30
2022-08-29T20:44:37.717Z,45.30
2022-08-29T20:47:06.698Z,45.30
2022-08-29T20:49:36.043Z,45.30
2022-08-29T20:52:04.875Z,45.40
2022-08-29T20:54:32.853Z,45.40
2022-08-29T20:57:00.885Z,45.40
2022-08-29T20:59:32.625Z,45.40
2022-08-29T21:02:03.180Z,45.40
2022-08-29T21:04:48.689Z,45.40
2022-08-29T21:07:18.904Z,45.40
2022-08-29T21:09:46.954Z,45.50
2022-08-29T21:12:15.300Z,45.40
2022-08-29T21:14:43.314Z,45.30
2022-08-29T21:17:11.977Z,45.40
2022-08-29T21:19:39.896Z,45.40
2022-08-29T21:22:08.289Z,45.40
2022-08-29T21:24:38.277Z,45.50
2022-08-29T21:27:06.372Z,45.40
2022-08-29T21:29:34.400Z,45.50
2022-08-29T21:32:02.405Z,45.50
2022-08-29T21:34:30.365Z,45.50
2022-08-29T21:36:58.293Z,45.40
2022-08-29T21:39:29.033Z,45.50
2022-08-29T21:42:02.994Z,45.40
2022-08-29T21:44:31.121Z,45.40
2022-08-29T21:46:59.124Z,45.30
2022-08-29T21:49:27.170Z,45.40
2022-08-29T21:51:54.905Z,45.40
2022-08-29T21:54:23.032Z,45.40
2022-08-29T21:56:51.293Z,45.40
2022-08-29T21:59:21.818Z,45.50
2022-08-29T22:01:54.803Z,45.50
2022-08-29T22:04:28.127Z,45.50
2022-08-29T22:06:56.711Z,45.50
2022-08-29T22:09:25.686Z,45.50
2022-08-29T22:11:53.627Z,45.50
2022-08-29T22:14:43.005Z,45.50
2022-08-29T22:17:09.892Z,45.50
2022-08-29T22:19:37.815Z,45.60
2022-08-29T22:22:05.896Z,45.50
2022-08-29T22:24:33.788Z,45.60
2022-08-29T22:27:02.339Z,45.60
2022-08-29T22:29:31.974Z,45.70
2022-08-29T22:32:00.575Z,45.70
2022-08-29T22:34:28.431Z,45.70
2022-08-29T22:36:56.922Z,45.60
2022-08-29T22:39:24.795Z,45.60
2022-08-29T22:41:52.558Z,45.60
2022-08-29T22:47:09.822Z,45.60
2022-08-29T22:49:38.758Z,45.50
2022-08-29T22:52:06.707Z,45.50
2022-08-29T22:54:39.524Z,45.60
2022-08-29T22:57:08.668Z,45.60
2022-08-29T22:59:37.073Z,45.60
2022-08-29T23:02:05.453Z,45.60
2022-08-29T23:04:34.695Z,45.70
2022-08-29T23:07:02.465Z,45.70
2022-08-29T23:09:33.556Z,45.70
2022-08-29T23:12:04.277Z,45.70
2022-08-29T23:14:32.758Z,45.70
2022-08-29T23:17:00.616Z,45.70
2022-08-29T23:19:28.645Z,45.70
2022-08-29T23:21:57.999Z,45.50
2022-08-29T23:24:26.819Z,45.60
2022-08-29T23:26:54.859Z,45.60
2022-08-29T23:29:22.836Z,45.60
2022-08-29T23:31:50.764Z,45.60
2022-08-29T23:34:18.516Z,45.60
2022-08-29T23:36:46.227Z,45.60
2022-08-29T23:39:15.311Z,45.70
2022-08-29T23:41:43.042Z,45.70
2022-08-29T23:44:10.763Z,45.60
2022-08-29T23:46:38.815Z,45.80
2022-08-29T23:49:06.885Z,45.60
2022-08-29T23:51:34.857Z,45.60
2022-08-29T23:54:02.844Z,45.70
2022-08-29T23:56:32.486Z,45.60
2022-08-29T23:59:00.411Z,45.70
